Terminal Aerodrome Forecast
Issued by NWS

Home | Current Version | Previous Version | Text Only | Print | Product List | Glossary On
Versions: 1 2 3 4 5 6 7 8 9 10 11 12 13 14 15
000
FTUS45 KBOI 180529
TAFJER
TAF
KJER 180529Z 1806/1906 23028G38KT P6SM -SHRA BKN040 OVC070
     FM180800 27015G25KT P6SM -SHRA BKN040 OVC070
     FM181100 25014KT P6SM SCT040 BKN070 OVC110
     FM181500 26018G28KT P6SM SCT150=

USA.gov is the U.S. government's official web portal to all federal, state and local government web resources and services.